createdAt,value
2018-04-25T00:02:10.166Z,80.30
2018-04-25T00:04:37.060Z,80.50
2018-04-25T00:07:03.941Z,80.70
2018-04-25T00:09:30.889Z,81.10
2018-04-25T00:11:59.331Z,81.40
2018-04-25T00:14:27.012Z,81.80
2018-04-25T00:16:53.905Z,81.70
2018-04-25T00:19:21.520Z,81.80
2018-04-25T00:21:48.401Z,81.80
2018-04-25T00:24:15.533Z,81.90
2018-04-25T00:26:45.384Z,81.60
2018-04-25T00:29:12.253Z,81.30
2018-04-25T00:31:39.897Z,81.30
2018-04-25T00:34:07.175Z,81.30
2018-04-25T00:36:34.953Z,81.30
2018-04-25T00:39:01.824Z,81.40
2018-04-25T00:41:28.800Z,80.70
2018-04-25T00:43:55.740Z,80.40
2018-04-25T00:46:22.633Z,80.30
2018-04-25T00:48:49.598Z,80.60
2018-04-25T00:51:17.229Z,81.00
2018-04-25T00:53:44.104Z,81.00
2018-04-25T00:56:10.993Z,81.10
2018-04-25T00:58:37.896Z,81.30
2018-04-25T01:01:06.384Z,81.50
2018-04-25T01:03:33.926Z,81.60
2018-04-25T01:06:00.816Z,82.00
2018-04-25T01:08:27.734Z,81.90
2018-04-25T01:10:55.320Z,81.80
2018-04-25T01:13:22.741Z,81.60
2018-04-25T01:15:49.690Z,81.70
2018-04-25T01:18:16.968Z,81.80
2018-04-25T01:20:43.866Z,81.70
2018-04-25T01:23:10.972Z,81.60
2018-04-25T01:25:40.785Z,81.70
2018-04-25T01:28:08.490Z,81.40
2018-04-25T01:30:37.261Z,81.30
2018-04-25T01:33:06.733Z,81.50
2018-04-25T01:35:33.676Z,81.50
2018-04-25T01:38:00.784Z,82.00
2018-04-25T01:40:27.836Z,82.30
2018-04-25T01:43:06.713Z,82.50
2018-04-25T01:46:08.556Z,82.70
2018-04-25T01:52:02.457Z,83.60
2018-04-25T01:54:41.173Z,82.90
2018-04-25T01:57:20.817Z,83.20
2018-04-25T02:00:01.263Z,83.30
2018-04-25T02:02:27.836Z,83.40
2018-04-25T02:04:55.447Z,83.10
2018-04-25T02:07:22.321Z,83.10
2018-04-25T02:09:49.195Z,83.10
2018-04-25T02:12:18.888Z,83.20
2018-04-25T02:14:46.522Z,83.60
2018-04-25T02:17:14.500Z,83.60
2018-04-25T02:19:41.373Z,83.70
2018-04-25T02:22:08.296Z,83.70
2018-04-25T02:24:36.905Z,83.80
2018-04-25T02:27:03.781Z,83.90
2018-04-25T02:29:30.675Z,83.90
2018-04-25T02:31:58.295Z,83.80
2018-04-25T02:34:26.444Z,83.80
2018-04-25T02:36:54.105Z,84.00
2018-04-25T02:39:21.867Z,83.90
2018-04-25T02:41:48.744Z,84.10
2018-04-25T02:44:15.641Z,84.30
2018-04-25T02:46:44.033Z,84.50
2018-04-25T02:49:12.185Z,84.40
2018-04-25T02:51:39.086Z,84.60
2018-04-25T02:54:05.970Z,84.60
2018-04-25T02:56:32.857Z,84.80
2018-04-25T02:58:59.865Z,84.70
2018-04-25T03:01:28.718Z,84.90
2018-04-25T03:03:55.588Z,84.80
2018-04-25T03:06:22.495Z,84.70
2018-04-25T03:08:49.856Z,85.20
2018-04-25T03:11:16.728Z,85.30
2018-04-25T03:13:44.713Z,85.80
2018-04-25T03:16:13.428Z,86.00
2018-04-25T03:18:40.288Z,86.10
2018-04-25T03:21:07.179Z,86.00
2018-04-25T03:23:34.913Z,86.40
2018-04-25T03:26:02.985Z,86.50
2018-04-25T03:28:29.884Z,86.60
2018-04-25T03:30:56.766Z,86.60
2018-04-25T03:33:23.648Z,87.20
2018-04-25T03:35:50.625Z,87.80
2018-04-25T03:38:18.805Z,88.00
2018-04-25T03:40:45.672Z,88.50
2018-04-25T03:43:12.540Z,88.50
2018-04-25T03:45:39.512Z,88.50
2018-04-25T03:48:06.391Z,88.30
2018-04-25T03:50:33.628Z,88.50
2018-04-25T03:53:01.212Z,88.40
2018-04-25T03:55:28.097Z,88.60
2018-04-25T03:57:54.983Z,88.30
2018-04-25T04:00:21.864Z,88.70
2018-04-25T04:02:48.966Z,88.60
2018-04-25T04:05:15.836Z,88.40
2018-04-25T04:07:43.621Z,88.50
2018-04-25T04:10:11.265Z,88.90
2018-04-25T04:12:38.132Z,88.90
2018-04-25T04:15:07.101Z,89.10
2018-04-25T04:17:33.986Z,89.90
2018-04-25T04:20:00.876Z,88.70
2018-04-25T04:22:27.764Z,88.80
2018-04-25T04:24:54.695Z,88.60
2018-04-25T04:27:22.876Z,88.60
2018-04-25T04:29:50.902Z,88.70
2018-04-25T04:32:17.768Z,88.80
2018-04-25T04:34:44.681Z,88.80
2018-04-25T04:37:12.495Z,88.90
2018-04-25T04:39:40.476Z,89.10
2018-04-25T04:42:07.327Z,89.10
2018-04-25T04:44:34.188Z,89.10
2018-04-25T04:47:01.049Z,88.90
2018-04-25T04:49:27.913Z,89.00
2018-04-25T04:51:58.027Z,88.90
2018-04-25T04:54:24.905Z,88.90
2018-04-25T04:56:52.503Z,88.90
2018-04-25T04:59:19.888Z,88.90
2018-04-25T05:01:46.765Z,88.90
2018-04-25T05:04:14.144Z,88.80
2018-04-25T05:06:41.655Z,88.80
2018-04-25T05:09:08.516Z,88.80
2018-04-25T05:11:35.371Z,88.80
2018-04-25T05:14:02.786Z,89.10
2018-04-25T05:16:31.008Z,89.10
2018-04-25T05:18:57.884Z,89.00
2018-04-25T05:21:25.139Z,89.20
2018-04-25T05:23:51.999Z,89.20
2018-04-25T05:26:18.852Z,89.20
2018-04-25T05:28:46.196Z,89.40
2018-04-25T05:31:13.067Z,89.30
2018-04-25T05:33:39.945Z,89.50
2018-04-25T05:36:06.938Z,89.50
2018-04-25T05:38:34.423Z,89.80
2018-04-25T05:41:04.469Z,89.80
2018-04-25T05:43:31.341Z,90.00
2018-04-25T05:45:58.250Z,90.10
2018-04-25T05:48:25.100Z,90.30
2018-04-25T05:50:52.488Z,90.30
2018-04-25T05:53:19.840Z,90.30
2018-04-25T05:55:46.695Z,90.20
2018-04-25T05:58:14.532Z,90.20
2018-04-25T06:00:41.392Z,90.20
2018-04-25T06:03:08.243Z,90.30
2018-04-25T06:05:36.156Z,90.20
2018-04-25T06:08:03.016Z,90.20
2018-04-25T06:10:29.872Z,90.20
2018-04-25T06:12:56.756Z,90.20
2018-04-25T06:15:23.662Z,90.10
2018-04-25T06:17:51.704Z,90.00
2018-04-25T06:20:20.068Z,90.00
2018-04-25T06:22:46.991Z,90.00
2018-04-25T06:25:13.847Z,90.00
2018-04-25T06:27:40.716Z,90.20
2018-04-25T06:30:08.689Z,90.10
2018-04-25T06:32:35.544Z,90.10
2018-04-25T06:35:02.864Z,90.00
2018-04-25T06:37:29.787Z,90.10
2018-04-25T06:39:56.912Z,90.00
2018-04-25T06:42:23.832Z,89.60
2018-04-25T06:44:50.773Z,89.50
2018-04-25T06:47:17.604Z,89.30
2018-04-25T06:49:44.968Z,89.30
2018-04-25T06:52:11.830Z,89.30
2018-04-25T06:54:39.044Z,89.10
2018-04-25T06:57:06.298Z,89.10
2018-04-25T06:59:33.156Z,88.80
2018-04-25T07:02:00.040Z,88.80
2018-04-25T07:04:26.908Z,88.90
2018-04-25T07:06:56.239Z,88.80
2018-04-25T07:09:23.112Z,88.80
2018-04-25T07:11:50.889Z,88.50
2018-04-25T07:14:17.751Z,88.60
2018-04-25T07:16:44.621Z,88.60
2018-04-25T07:19:12.555Z,88.50
2018-04-25T07:21:40.215Z,88.00
2018-04-25T07:24:07.076Z,87.90
2018-04-25T07:26:34.396Z,87.80
2018-04-25T07:29:01.655Z,87.40
2018-04-25T07:31:28.552Z,87.60
2018-04-25T07:33:55.544Z,87.50
2018-04-25T07:36:22.412Z,86.50
2018-04-25T07:38:49.277Z,84.90
2018-04-25T07:41:18.867Z,83.70
2018-04-25T07:43:46.797Z,81.70
2018-04-25T07:46:14.540Z,81.10
2018-04-25T07:48:41.439Z,80.60
2018-04-25T07:51:09.084Z,79.50
2018-04-25T07:53:35.987Z,79.50
2018-04-25T07:56:03.752Z,79.10
2018-04-25T07:58:30.620Z,78.60
2018-04-25T08:00:57.480Z,78.40
2018-04-25T08:03:25.192Z,77.80
2018-04-25T08:05:52.474Z,77.70
2018-04-25T08:08:19.499Z,77.20
2018-04-25T08:10:46.364Z,77.00
2018-04-25T08:13:25.309Z,76.60
2018-04-25T08:16:04.224Z,76.20
2018-04-25T08:18:43.588Z,75.90
2018-04-25T08:21:19.616Z,76.00
2018-04-25T08:23:46.483Z,76.40
2018-04-25T08:26:14.504Z,76.70
2018-04-25T08:28:42.531Z,76.70
2018-04-25T08:31:09.387Z,76.10
2018-04-25T08:33:36.249Z,75.80
2018-04-25T08:36:03.360Z,74.70
2018-04-25T08:38:32.743Z,74.80
2018-04-25T08:41:10.606Z,74.70
2018-04-25T08:43:38.343Z,74.30
2018-04-25T08:46:05.324Z,74.20
2018-04-25T08:48:32.196Z,73.60
2018-04-25T08:51:00.228Z,72.70
2018-04-25T08:53:27.164Z,72.00
2018-04-25T08:55:55.897Z,71.80
2018-04-25T08:58:22.760Z,72.50
2018-04-25T09:00:50.418Z,70.40
2018-04-25T09:03:19.528Z,70.30
2018-04-25T09:05:47.878Z,69.70
2018-04-25T09:08:15.551Z,68.70
2018-04-25T09:10:42.428Z,68.70
2018-04-25T09:13:09.343Z,67.50
2018-04-25T09:15:37.418Z,67.10
2018-04-25T09:18:05.247Z,67.10
2018-04-25T09:20:32.124Z,66.70
2018-04-25T09:22:59.832Z,65.80
2018-04-25T09:25:26.753Z,65.70
2018-04-25T09:27:55.069Z,65.50
2018-04-25T09:30:23.504Z,65.40
2018-04-25T09:32:50.480Z,63.20
2018-04-25T09:35:17.348Z,63.40
2018-04-25T09:37:44.217Z,61.30
2018-04-25T09:40:11.868Z,60.80
2018-04-25T09:42:39.094Z,60.70
2018-04-25T09:45:06.843Z,59.50
2018-04-25T09:47:34.733Z,59.00
2018-04-25T09:50:01.600Z,58.90
2018-04-25T09:52:28.995Z,58.30
2018-04-25T09:54:58.319Z,58.80
2018-04-25T09:57:25.528Z,58.50
2018-04-25T09:59:52.387Z,58.20
2018-04-25T10:02:26.016Z,57.30
2018-04-25T10:04:53.652Z,57.90
2018-04-25T10:07:22.879Z,57.80
2018-04-25T10:09:52.024Z,57.80
2018-04-25T10:12:18.932Z,57.10
2018-04-25T10:14:46.508Z,56.80
2018-04-25T10:17:14.144Z,57.20
2018-04-25T10:19:41.812Z,57.00
2018-04-25T10:22:08.782Z,55.90
2018-04-25T10:24:36.081Z,54.70
2018-04-25T10:27:02.985Z,54.30
2018-04-25T10:29:30.951Z,53.80
2018-04-25T10:31:59.267Z,53.80
2018-04-25T10:34:26.317Z,54.20
2018-04-25T10:36:55.636Z,53.50
2018-04-25T10:39:23.616Z,52.80
2018-04-25T10:41:51.095Z,52.20
2018-04-25T10:44:22.206Z,52.30
2018-04-25T10:46:50.072Z,52.30
2018-04-25T10:49:16.972Z,52.00
2018-04-25T10:51:44.343Z,51.90
2018-04-25T10:54:13.428Z,51.30
2018-04-25T10:56:41.405Z,50.60
2018-04-25T10:59:09.111Z,49.60
2018-04-25T11:01:36.912Z,49.60
2018-04-25T11:04:03.788Z,50.30
2018-04-25T11:06:31.511Z,49.60
2018-04-25T11:09:01.096Z,49.60
2018-04-25T11:11:27.976Z,49.00
2018-04-25T11:13:54.844Z,49.10
2018-04-25T11:16:23.256Z,49.00
2018-04-25T11:18:50.156Z,49.10
2018-04-25T11:21:17.651Z,50.00
2018-04-25T11:23:45.072Z,50.70
2018-04-25T11:26:12.013Z,49.70
2018-04-25T11:28:38.895Z,49.40
2018-04-25T11:31:06.701Z,49.90
2018-04-25T11:33:34.051Z,49.60
2018-04-25T11:36:01.661Z,49.50
2018-04-25T11:38:29.153Z,49.20
2018-04-25T11:40:56.036Z,48.90
2018-04-25T11:43:23.412Z,49.40
2018-04-25T11:45:51.155Z,49.40
2018-04-25T11:48:18.505Z,50.00
2018-04-25T11:50:45.368Z,50.00
2018-04-25T11:53:12.837Z,50.20
2018-04-25T11:55:40.055Z,49.80
2018-04-25T11:58:06.970Z,49.40
2018-04-25T12:00:35.176Z,48.90
2018-04-25T12:03:02.058Z,48.80
2018-04-25T12:05:28.936Z,49.80
2018-04-25T12:07:56.660Z,49.80
2018-04-25T12:10:24.534Z,49.80
2018-04-25T12:12:51.462Z,49.70
2018-04-25T12:15:18.337Z,49.60
2018-04-25T12:17:45.235Z,50.70
2018-04-25T12:20:12.231Z,51.00
2018-04-25T12:22:39.192Z,50.80
2018-04-25T12:25:06.824Z,52.00
2018-04-25T12:27:33.695Z,51.90
2018-04-25T12:30:01.313Z,52.70
2018-04-25T12:32:28.199Z,52.70
2018-04-25T12:34:56.017Z,53.10
2018-04-25T12:37:22.944Z,53.10
2018-04-25T12:39:50.652Z,53.80
2018-04-25T12:42:18.716Z,53.80
2018-04-25T12:44:46.453Z,54.20
2018-04-25T12:47:13.473Z,53.80
2018-04-25T12:49:41.391Z,53.90
2018-04-25T12:52:08.576Z,54.10
2018-04-25T12:54:35.440Z,54.20
2018-04-25T12:57:03.622Z,54.30
2018-04-25T12:59:32.960Z,55.10
2018-04-25T13:01:59.843Z,54.60
2018-04-25T13:04:26.752Z,54.20
2018-04-25T13:06:54.166Z,53.70
2018-04-25T13:09:21.516Z,54.60
2018-04-25T13:11:48.409Z,54.30
2018-04-25T13:14:15.286Z,54.70
2018-04-25T13:16:42.156Z,55.00
2018-04-25T13:19:09.020Z,55.00
2018-04-25T13:21:36.989Z,55.00
2018-04-25T13:24:04.521Z,55.10
2018-04-25T13:26:31.448Z,55.10
2018-04-25T13:28:58.760Z,55.40
2018-04-25T13:31:25.652Z,56.00
2018-04-25T13:33:52.533Z,55.80
2018-04-25T13:36:19.856Z,56.20
2018-04-25T13:38:46.725Z,56.10
2018-04-25T13:41:13.808Z,55.70
2018-04-25T13:43:41.415Z,56.10
2018-04-25T13:46:08.796Z,56.10
2018-04-25T13:48:35.760Z,56.20
2018-04-25T13:51:02.876Z,55.90
2018-04-25T13:53:31.158Z,56.40
2018-04-25T13:55:58.040Z,56.70
2018-04-25T13:58:26.152Z,57.30
2018-04-25T14:00:55.293Z,57.30
2018-04-25T14:03:22.163Z,56.70
2018-04-25T14:05:49.790Z,57.20
2018-04-25T14:08:16.648Z,57.20
2018-04-25T14:10:44.704Z,57.90
2018-04-25T14:13:13.602Z,57.90
2018-04-25T14:15:40.468Z,57.70
2018-04-25T14:18:08.078Z,57.60
2018-04-25T14:20:35.035Z,57.60
2018-04-25T14:23:02.445Z,58.40
2018-04-25T14:25:29.843Z,58.10
2018-04-25T14:27:56.767Z,58.20
2018-04-25T14:30:23.767Z,59.20
2018-04-25T14:32:51.167Z,59.80
2018-04-25T14:35:19.580Z,59.70
2018-04-25T14:37:46.542Z,60.50
2018-04-25T14:40:16.125Z,60.20
2018-04-25T14:42:43.876Z,60.30
2018-04-25T14:45:10.750Z,60.30
2018-04-25T14:47:38.703Z,60.20
2018-04-25T14:50:06.708Z,60.20
2018-04-25T14:52:35.332Z,60.60
2018-04-25T14:55:02.213Z,61.00
2018-04-25T14:57:29.121Z,60.90
2018-04-25T14:59:56.463Z,61.50
2018-04-25T15:02:23.890Z,62.40
2018-04-25T15:04:50.924Z,61.70
2018-04-25T15:07:19.244Z,62.00
2018-04-25T15:09:46.119Z,62.00
2018-04-25T15:12:13.506Z,61.00
2018-04-25T15:14:41.259Z,61.40
2018-04-25T15:17:08.183Z,61.50
2018-04-25T15:19:36.048Z,60.80
2018-04-25T15:22:04.716Z,60.40
2018-04-25T15:24:31.679Z,59.90
2018-04-25T15:26:59.260Z,60.40
2018-04-25T15:29:26.923Z,54.90
2018-04-25T15:31:53.856Z,54.70
2018-04-25T15:34:20.825Z,49.60
2018-04-25T15:36:51.652Z,44.90
2018-04-25T15:39:19.374Z,43.80
2018-04-25T15:41:46.636Z,43.80
2018-04-25T15:44:13.564Z,43.10
2018-04-25T15:46:40.460Z,43.00
2018-04-25T15:49:09.028Z,42.40
2018-04-25T15:51:36.273Z,42.40
2018-04-25T15:54:03.232Z,42.60
2018-04-25T15:56:31.138Z,42.10
2018-04-25T15:58:58.000Z,42.00
2018-04-25T16:01:24.939Z,42.10
2018-04-25T16:03:52.769Z,42.20
2018-04-25T16:06:21.224Z,42.80
2018-04-25T16:08:48.101Z,42.70
2018-04-25T16:11:14.996Z,43.80
2018-04-25T16:13:41.896Z,44.00
2018-04-25T16:16:09.346Z,44.10
2018-04-25T16:18:36.228Z,44.00
2018-04-25T16:21:03.118Z,44.50
2018-04-25T16:23:30.784Z,45.20
2018-04-25T16:25:57.836Z,45.20
2018-04-25T16:28:26.468Z,45.00
2018-04-25T16:30:53.363Z,45.80
2018-04-25T16:33:20.439Z,45.70
2018-04-25T16:35:47.328Z,45.80
2018-04-25T16:38:15.147Z,46.00
2018-04-25T16:40:46.060Z,46.00
2018-04-25T16:43:12.933Z,46.30
2018-04-25T16:45:39.844Z,46.30
2018-04-25T16:48:07.443Z,47.70
2018-04-25T16:50:34.746Z,47.70
2018-04-25T16:53:01.724Z,48.30
2018-04-25T16:55:28.628Z,49.00
2018-04-25T16:57:55.507Z,48.80
2018-04-25T17:00:22.412Z,48.90
2018-04-25T17:02:50.580Z,49.20
2018-04-25T17:05:18.241Z,49.00
2018-04-25T17:07:45.112Z,49.20
2018-04-25T17:10:13.269Z,49.70
2018-04-25T17:12:41.457Z,50.00
2018-04-25T17:15:10.796Z,50.30
2018-04-25T17:17:40.796Z,50.30
2018-04-25T17:20:07.681Z,50.30
2018-04-25T17:22:34.903Z,50.50
2018-04-25T17:25:02.815Z,51.20
2018-04-25T17:27:30.636Z,51.20
2018-04-25T17:29:57.949Z,51.40
2018-04-25T17:32:26.074Z,52.20
2018-04-25T17:34:52.951Z,52.90
2018-04-25T17:37:19.836Z,52.20
2018-04-25T17:39:46.796Z,52.50
2018-04-25T17:42:14.575Z,52.70
2018-04-25T17:44:41.448Z,52.70
2018-04-25T17:47:08.381Z,53.00
2018-04-25T17:49:35.241Z,53.00
2018-04-25T17:52:03.455Z,53.20
2018-04-25T17:54:30.929Z,53.10
2018-04-25T17:56:57.971Z,53.20
2018-04-25T17:59:24.839Z,53.30
2018-04-25T18:01:51.712Z,53.50
2018-04-25T18:04:19.066Z,53.70
2018-04-25T18:06:46.748Z,54.30
2018-04-25T18:09:16.801Z,54.30
2018-04-25T18:11:43.734Z,54.40
2018-04-25T18:14:10.659Z,54.60
2018-04-25T18:16:37.646Z,54.70
2018-04-25T18:19:04.549Z,54.80
2018-04-25T18:21:31.926Z,55.10
2018-04-25T18:23:58.807Z,55.00
2018-04-25T18:26:25.696Z,55.10
2018-04-25T18:28:52.566Z,55.40
2018-04-25T18:31:21.783Z,55.60
2018-04-25T18:33:49.043Z,55.80
2018-04-25T18:36:15.904Z,56.10
2018-04-25T18:38:43.899Z,56.40
2018-04-25T18:41:11.189Z,56.40
2018-04-25T18:43:38.088Z,56.50
2018-04-25T18:46:05.884Z,56.70
2018-04-25T18:48:32.872Z,57.00
2018-04-25T18:50:59.781Z,57.30
2018-04-25T18:53:26.756Z,57.20
2018-04-25T18:55:55.208Z,57.10
2018-04-25T18:58:22.932Z,57.20
2018-04-25T19:00:49.884Z,57.00
2018-04-25T19:03:16.826Z,57.20
2018-04-25T19:05:43.675Z,56.90
2018-04-25T19:08:11.992Z,56.70
2018-04-25T19:10:38.899Z,57.00
2018-04-25T19:13:05.779Z,56.60
2018-04-25T19:15:32.659Z,56.20
2018-04-25T19:17:59.544Z,55.60
2018-04-25T19:20:26.827Z,55.30
2018-04-25T19:22:54.190Z,55.10
2018-04-25T19:25:21.048Z,55.10
2018-04-25T19:27:48.651Z,54.60
2018-04-25T19:30:15.892Z,54.40
2018-04-25T19:32:42.836Z,54.20
2018-04-25T19:35:11.060Z,53.60
2018-04-25T19:37:38.528Z,53.40
2018-04-25T19:40:05.403Z,53.00
2018-04-25T19:42:32.270Z,52.60
2018-04-25T19:45:00.575Z,52.20
2018-04-25T19:47:27.476Z,52.30
2018-04-25T19:49:54.403Z,52.00
2018-04-25T19:52:21.527Z,51.90
2018-04-25T19:54:48.400Z,52.10
2018-04-25T19:57:16.116Z,51.70
2018-04-25T19:59:43.596Z,51.50
2018-04-25T20:02:11.212Z,51.30
2018-04-25T20:04:38.077Z,51.30
2018-04-25T20:07:05.529Z,51.20
2018-04-25T20:09:33.237Z,51.00
2018-04-25T20:12:01.340Z,50.90
2018-04-25T20:14:28.432Z,50.90
2018-04-25T20:16:55.310Z,50.90
2018-04-25T20:19:22.188Z,51.10
2018-04-25T20:21:49.649Z,50.60
2018-04-25T20:24:17.005Z,50.40
2018-04-25T20:26:44.100Z,50.40
2018-04-25T20:29:13.360Z,50.30
2018-04-25T20:31:40.249Z,50.20
2018-04-25T20:34:09.297Z,50.00
2018-04-25T20:36:36.313Z,50.00
2018-04-25T20:39:03.537Z,50.50
2018-04-25T20:41:32.817Z,49.90
2018-04-25T20:44:00.531Z,50.30
2018-04-25T20:46:27.436Z,50.20
2018-04-25T20:48:56.234Z,50.40
2018-04-25T20:51:24.313Z,50.40
2018-04-25T20:53:51.636Z,50.40
2018-04-25T20:56:19.265Z,50.00
2018-04-25T20:58:46.754Z,50.00
2018-04-25T21:01:15.200Z,49.90
2018-04-25T21:03:42.077Z,49.30
2018-04-25T21:06:09.024Z,49.50
2018-04-25T21:08:35.970Z,49.30
2018-04-25T21:11:04.412Z,50.50
2018-04-25T21:13:32.720Z,49.20
2018-04-25T21:15:59.584Z,49.30
2018-04-25T21:18:27.197Z,49.40
2018-04-25T21:20:54.076Z,49.40
2018-04-25T21:23:22.440Z,50.10
2018-04-25T21:25:49.353Z,49.60
2018-04-25T21:28:17.078Z,49.40
2018-04-25T21:30:43.990Z,49.50
2018-04-25T21:33:10.922Z,49.40
2018-04-25T21:35:39.156Z,49.70
2018-04-25T21:38:08.364Z,49.70
2018-04-25T21:40:35.261Z,49.50
2018-04-25T21:43:02.134Z,50.30
2018-04-25T21:45:29.026Z,49.70
2018-04-25T21:47:56.696Z,49.90
2018-04-25T21:50:24.776Z,50.50
2018-04-25T21:52:51.741Z,50.40
2018-04-25T21:55:18.621Z,50.50
2018-04-25T21:57:45.520Z,50.40
2018-04-25T22:00:13.458Z,50.90
2018-04-25T22:02:42.288Z,51.00
2018-04-25T22:05:10.285Z,51.40
2018-04-25T22:07:37.353Z,51.40
2018-04-25T22:10:04.237Z,50.90
2018-04-25T22:12:33.072Z,51.40
2018-04-25T22:15:00.430Z,51.40
2018-04-25T22:17:27.372Z,51.30
2018-04-25T22:19:55.048Z,51.10
2018-04-25T22:22:21.926Z,50.80
2018-04-25T22:24:48.827Z,50.70
2018-04-25T22:27:16.500Z,50.60
2018-04-25T22:29:43.377Z,50.60
2018-04-25T22:32:10.278Z,50.80
2018-04-25T22:34:37.159Z,51.70
2018-04-25T22:37:04.104Z,51.10
2018-04-25T22:39:32.402Z,51.70
2018-04-25T22:42:00.104Z,51.20
2018-04-25T22:44:26.969Z,51.20
2018-04-25T22:46:53.857Z,51.00
2018-04-25T22:49:22.338Z,50.70
2018-04-25T22:51:49.244Z,50.60
2018-04-25T22:54:16.117Z,50.50
2018-04-25T22:56:43.105Z,50.50
2018-04-25T22:59:09.980Z,50.50
2018-04-25T23:01:38.878Z,50.30
2018-04-25T23:04:06.697Z,49.60
2018-04-25T23:06:33.577Z,49.60
2018-04-25T23:09:00.473Z,49.40
2018-04-25T23:11:28.924Z,48.90
2018-04-25T23:13:56.568Z,48.50
2018-04-25T23:16:24.997Z,48.50
2018-04-25T23:18:51.978Z,48.40
2018-04-25T23:21:18.869Z,48.40
2018-04-25T23:23:45.747Z,48.00
2018-04-25T23:26:13.237Z,47.90
2018-04-25T23:28:40.172Z,47.70
2018-04-25T23:31:07.078Z,47.70
2018-04-25T23:33:34.454Z,47.40
2018-04-25T23:36:01.345Z,47.10
2018-04-25T23:38:28.866Z,47.90
2018-04-25T23:40:56.395Z,47.30
2018-04-25T23:43:23.280Z,47.00
2018-04-25T23:45:50.170Z,46.90
2018-04-25T23:48:18.648Z,47.10
2018-04-25T23:50:48.621Z,47.30
2018-04-25T23:53:16.332Z,47.30
2018-04-25T23:55:43.241Z,47.00
2018-04-25T23:58:10.112Z,47.10
